Terminal Aerodrome Forecast
Issued by NWS

Home | Current Version | Previous Version | Graphics & Text | Print | Product List | Glossary On
Versions: 1 2 3 4 5 6 7 8 9 10 11 12 13 14
000
FTUS43 KIWX 040500
TAFSBN
TAF
KSBN 040537Z 0406/0506 30012KT P6SM SCT025 BKN035
      TEMPO 0406/0410 BKN022
     FM041000 31010KT P6SM BKN020
     FM041600 30012G18KT P6SM BKN025=

USA.gov is the U.S. government's official web portal to all federal, state and local government web resources and services.